Time;durP1;ratioP1;P1;durP2;ratioP2;P2;SDS_P1;SDS_P2;PMS_P1;PMS_P2;Temp;Humidity;BMP_temperature;BMP_pressure;BME280_temperature;BME280_humidity;BME280_pressure;Samples;Min_cycle;Max_cycle;Signal;HPM_P1;HPM_P2
2021/12/13 06:00:48;;;;;;;12.17;7.10;;;7.10;99.90;;;;;;5989604;23;20034;31
2021/12/13 06:03:18;;;;;;;10.82;6.78;;;7.00;99.90;;;;;;4878539;29;20057;-76
2021/12/13 06:05:49;;;;;;;11.07;7.18;;;7.10;99.90;;;;;;4880947;29;20049;-78
2021/12/13 06:08:20;;;;;;;11.13;7.20;;;7.00;99.90;;;;;;4881031;29;20045;-76
2021/12/13 06:10:55;;;;;;;11.13;7.18;;;7.00;99.90;;;;;;4881215;29;20475;-80
2021/12/13 06:13:55;;;;;;;11.02;7.10;;;7.00;99.90;;;;;;4880964;29;20152;-78
2021/12/13 06:17:04;;;;;;;11.23;7.10;;;7.00;99.90;;;;;;4878453;29;20061;-76
2021/12/13 06:19:35;;;;;;;11.05;7.07;;;7.00;99.90;;;;;;4878988;29;20049;-78
2021/12/13 06:22:10;;;;;;;13.35;7.10;;;7.00;99.90;;;;;;4880775;29;20057;-77
2021/12/13 06:24:41;;;;;;;12.15;7.63;;;7.00;99.90;;;;;;4880670;29;20049;-76
2021/12/13 06:27:14;;;;;;;12.57;7.90;;;7.00;99.90;;;;;;4880901;29;20414;-79
2021/12/13 06:30:03;;;;;;;13.10;8.38;;;7.00;99.90;;;;;;4880838;29;20060;-77
2021/12/13 06:32:40;;;;;;;12.13;7.85;;;6.90;99.90;;;;;;4880625;29;20049;-76
2021/12/13 06:35:47;;;;;;;13.18;7.32;;;6.90;99.90;;;;;;4880596;29;20175;-77
2021/12/13 06:38:47;;;;;;;12.50;7.50;;;6.80;99.90;;;;;;4877468;29;20414;-77
2021/12/13 06:41:32;;;;;;;11.18;6.82;;;6.80;99.90;;;;;;4880619;29;20060;-78
2021/12/13 06:44:01;;;;;;;11.38;7.00;;;6.90;99.90;;;;;;4880763;29;20076;-78
2021/12/13 06:46:47;;;;;;;12.63;7.25;;;6.90;99.90;;;;;;4880654;29;20059;-77
2021/12/13 06:49:23;;;;;;;13.18;7.30;;;6.90;99.90;;;;;;4880498;29;20057;-76
2021/12/13 06:51:57;;;;;;;10.07;6.40;;;6.90;99.90;;;;;;4880169;29;20136;-77
2021/12/13 06:54:34;;;;;;;11.57;7.40;;;7.00;99.90;;;;;;4880286;29;20075;-80
2021/12/13 06:57:06;;;;;;;10.80;6.85;;;7.00;99.90;;;;;;4879908;29;20049;-78
2021/12/13 06:59:37;;;;;;;11.80;7.28;;;7.00;99.90;;;;;;4880297;29;20053;-77
2021/12/13 07:02:13;;;;;;;11.73;7.15;;;7.00;99.90;;;;;;4880339;29;20060;-79
2021/12/13 07:05:02;;;;;;;11.43;6.72;;;7.00;99.90;;;;;;4880452;29;20057;-77
2021/12/13 07:07:35;;;;;;;10.43;6.88;;;7.00;99.90;;;;;;4880292;29;20140;-76
2021/12/13 07:10:09;;;;;;;11.05;6.95;;;7.00;99.90;;;;;;4880007;29;20459;-77
2021/12/13 07:12:47;;;;;;;12.15;7.35;;;7.00;99.90;;;;;;4879620;29;20075;-76
2021/12/13 07:15:36;;;;;;;12.25;6.95;;;6.90;99.90;;;;;;4880148;29;20049;-78
2021/12/13 07:18:13;;;;;;;11.40;6.72;;;6.90;99.90;;;;;;4880152;29;20131;-79
2021/12/13 07:20:48;;;;;;;12.60;7.43;;;6.90;99.90;;;;;;4879893;29;20049;-77
2021/12/13 07:23:16;;;;;;;;;;;6.80;99.90;;;;;;4880120;29;20057;-78
2021/12/13 07:25:47;;;;;;;11.73;6.53;;;6.80;99.90;;;;;;4879728;29;19934;-78
2021/12/13 07:28:32;;;;;;;11.30;6.70;;;6.70;99.90;;;;;;4879774;29;20059;-78
2021/12/13 07:31:01;;;;;;;10.95;6.75;;;6.70;99.90;;;;;;4879621;29;20436;-78
2021/12/13 07:33:38;;;;;;;12.25;7.38;;;6.80;99.90;;;;;;4879504;29;20144;-77
2021/12/13 07:36:19;;;;;;;11.60;7.18;;;6.70;99.90;;;;;;4879848;29;20060;-78
2021/12/13 07:38:50;;;;;;;11.98;6.97;;;6.70;99.90;;;;;;4879504;29;20064;-78
2021/12/13 07:41:18;;;;;;;12.02;7.15;;;6.80;99.90;;;;;;4879515;29;20053;-79
2021/12/13 07:43:46;;;;;;;10.32;6.45;;;6.80;99.90;;;;;;4879710;29;20079;-79
2021/12/13 07:46:27;;;;;;;12.15;7.25;;;6.80;99.90;;;;;;4880242;29;20181;-77
2021/12/13 07:48:58;;;;;;;11.75;7.07;;;6.80;99.90;;;;;;4879582;29;20104;-77
2021/12/13 07:51:30;;;;;;;13.70;7.20;;;6.80;99.90;;;;;;4879522;29;20124;-79
2021/12/13 07:54:05;;;;;;;11.68;6.65;;;6.80;99.90;;;;;;4879231;29;20059;-78
2021/12/13 07:56:49;;;;;;;11.75;6.97;;;6.80;99.90;;;;;;4879361;29;20136;-80
2021/12/13 07:59:24;;;;;;;11.02;6.40;;;6.80;99.90;;;;;;4879336;29;20136;-78
2021/12/13 08:01:56;;;;;;;13.32;7.07;;;6.80;99.90;;;;;;4879252;29;20063;-78
2021/12/13 08:04:30;;;;;;;11.70;6.78;;;6.90;99.90;;;;;;4879173;29;20067;-77
2021/12/13 08:07:07;;;;;;;11.10;6.93;;;6.90;99.90;;;;;;4879084;29;20384;-78
2021/12/13 08:09:41;;;;;;;14.23;7.63;;;6.90;99.90;;;;;;4878901;29;20426;-77
2021/12/13 08:12:18;;;;;;;13.03;7.17;;;7.00;99.90;;;;;;4879221;29;20057;-77
2021/12/13 08:14:48;;;;;;;12.10;6.97;;;7.00;99.90;;;;;;4878924;29;20525;-79
2021/12/13 08:17:20;;;;;;;12.15;6.65;;;7.00;99.90;;;;;;4878791;29;20491;-78
2021/12/13 08:19:56;;;;;;;12.38;6.82;;;7.00;99.90;;;;;;4878663;29;20451;-78
2021/12/13 08:22:28;;;;;;;10.90;6.95;;;7.10;99.90;;;;;;4878640;29;20232;-79
2021/12/13 08:24:59;;;;;;;12.15;6.85;;;7.10;99.90;;;;;;4883310;29;20202;-77
2021/12/13 08:27:30;;;;;;;13.50;7.18;;;7.10;99.90;;;;;;4879555;29;20080;-77
2021/12/13 08:30:18;;;;;;;12.38;6.97;;;7.10;99.90;;;;;;4879193;29;20124;-79
2021/12/13 08:33:10;;;;;;;12.88;7.13;;;7.10;99.90;;;;;;4878676;29;20049;-78
2021/12/13 08:35:56;;;;;;;13.70;7.88;;;7.20;99.90;;;;;;4878680;29;20049;-79
2021/12/13 08:38:35;;;;;;;13.65;8.10;;;7.20;99.90;;;;;;4878714;29;20144;-78
2021/12/13 08:41:17;;;;;;;16.90;8.98;;;7.10;99.90;;;;;;4878513;29;20055;-75
2021/12/13 08:43:54;;;;;;;13.90;8.25;;;7.10;99.90;;;;;;4878585;29;20422;-75
2021/12/13 08:46:41;;;;;;;15.50;9.20;;;7.10;99.90;;;;;;4878419;29;20051;-76
2021/12/13 08:49:38;;;;;;;16.88;8.93;;;7.10;99.90;;;;;;4878554;29;20479;-75
2021/12/13 08:52:21;;;;;;;17.15;9.05;;;7.10;99.90;;;;;;4878350;29;20052;-77
2021/12/13 08:55:07;;;;;;;18.25;10.13;;;7.10;99.90;;;;;;4878388;29;20052;-77
2021/12/13 08:57:47;;;;;;;15.32;9.02;;;7.00;99.90;;;;;;4878468;29;20053;-78
2021/12/13 09:00:41;;;;;;;15.52;8.35;;;7.00;99.90;;;;;;4878330;29;20061;-77
2021/12/13 09:03:35;;;;;;;16.58;8.82;;;7.00;99.90;;;;;;4878507;29;20136;-79
2021/12/13 09:06:29;;;;;;;15.75;9.35;;;7.00;99.90;;;;;;4877083;29;20487;-80
2021/12/13 09:09:06;;;;;;;15.13;8.23;;;7.00;99.90;;;;;;4877976;29;20053;-78
2021/12/13 09:11:40;;;;;;;15.13;8.20;;;7.00;99.90;;;;;;4877955;29;20056;-77
2021/12/13 09:14:17;;;;;;;14.40;7.90;;;7.00;99.90;;;;;;4878367;29;20474;-78
2021/12/13 09:17:07;;;;;;;15.77;8.65;;;7.00;99.90;;;;;;4878348;29;20063;-79
2021/12/13 09:19:42;;;;;;;16.75;9.05;;;7.00;99.90;;;;;;4880639;29;20061;-79
2021/12/13 09:22:14;;;;;;;16.42;9.07;;;7.10;99.90;;;;;;4882373;29;20049;-77
2021/12/13 09:24:50;;;;;;;15.80;9.25;;;7.10;99.90;;;;;;4881972;29;20049;-77
2021/12/13 09:27:38;;;;;;;18.85;9.90;;;7.10;99.90;;;;;;4881943;29;20053;-77
2021/12/13 09:30:39;;;;;;;14.60;8.50;;;7.10;99.90;;;;;;4881629;29;20502;-78
2021/12/13 09:33:14;;;;;;;17.55;9.60;;;7.10;99.90;;;;;;4877392;29;20057;-78
2021/12/13 09:35:51;;;;;;;17.75;9.23;;;7.10;99.90;;;;;;4881672;29;20045;-77
2021/12/13 09:38:36;;;;;;;15.80;9.25;;;7.10;99.90;;;;;;4881691;29;20123;-79
2021/12/13 09:41:35;;;;;;;16.70;9.82;;;7.10;99.90;;;;;;4881210;29;20230;-76
2021/12/13 09:44:19;;;;;;;15.32;9.00;;;7.20;99.90;;;;;;4874833;29;20084;-77
2021/12/13 09:46:52;;;;;;;16.23;9.50;;;7.20;99.90;;;;;;4881737;29;20467;-76
2021/12/13 09:49:28;;;;;;;17.13;9.75;;;7.20;99.90;;;;;;4881238;29;20308;-77
2021/12/13 09:52:01;;;;;;;16.15;8.77;;;7.30;99.90;;;;;;4881563;29;20585;-78
2021/12/13 09:54:32;;;;;;;18.65;9.57;;;7.30;99.90;;;;;;4880803;29;20056;-78
2021/12/13 09:57:04;;;;;;;17.48;9.90;;;7.30;99.90;;;;;;4880913;29;20051;-78
2021/12/13 09:59:39;;;;;;;17.95;9.65;;;7.30;99.90;;;;;;4881349;29;20059;-78
2021/12/13 10:02:11;;;;;;;17.85;9.43;;;7.30;99.90;;;;;;4881163;29;20589;-79
2021/12/13 10:04:43;;;;;;;15.32;9.02;;;7.40;99.90;;;;;;4881398;29;20436;-78
2021/12/13 10:07:14;;;;;;;16.33;9.27;;;7.40;99.90;;;;;;4881323;29;20045;-79
2021/12/13 10:09:47;;;;;;;13.90;8.00;;;7.50;99.90;;;;;;4880379;29;20515;-77
2021/12/13 10:12:21;;;;;;;13.75;7.55;;;7.50;99.90;;;;;;4881061;29;20059;-80
2021/12/13 10:14:53;;;;;;;12.75;7.70;;;7.60;99.90;;;;;;4881110;29;20053;-78
2021/12/13 10:17:25;;;;;;;13.23;7.95;;;7.60;99.90;;;;;;4881191;29;20139;-78
2021/12/13 10:19:57;;;;;;;15.68;9.05;;;7.70;99.90;;;;;;4881107;29;20079;-80
2021/12/13 10:22:29;;;;;;;14.00;8.70;;;7.80;99.90;;;;;;4881169;29;20059;-75
2021/12/13 10:24:59;;;;;;;14.68;9.18;;;7.80;99.90;;;;;;4880615;29;20063;-78
2021/12/13 10:27:27;;;;;;;15.18;9.02;;;7.80;99.90;;;;;;4880757;29;20051;-78
2021/12/13 10:30:00;;;;;;;15.25;8.60;;;7.80;99.90;;;;;;4879683;29;20057;-78
2021/12/13 10:32:31;;;;;;;13.63;8.35;;;7.80;99.90;;;;;;4880888;29;20265;-77
2021/12/13 10:35:03;;;;;;;14.45;8.25;;;7.90;99.90;;;;;;4880792;29;20509;-78
2021/12/13 10:37:34;;;;;;;13.70;7.75;;;7.80;99.90;;;;;;4880175;29;20045;-79
2021/12/13 10:40:07;;;;;;;14.05;8.25;;;7.80;99.90;;;;;;4880484;29;20049;-79
2021/12/13 10:42:39;;;;;;;13.23;8.00;;;7.90;99.90;;;;;;4880202;29;20135;-78
2021/12/13 10:45:13;;;;;;;12.38;7.55;;;7.90;99.90;;;;;;4880608;29;20049;-78
2021/12/13 10:47:46;;;;;;;11.97;7.20;;;8.00;99.90;;;;;;4880514;29;20532;-77
2021/12/13 10:50:20;;;;;;;13.63;8.13;;;8.10;99.90;;;;;;4880495;29;20057;-76
2021/12/13 10:52:51;;;;;;;15.45;8.73;;;8.00;99.90;;;;;;4880442;29;20434;-78
2021/12/13 10:55:24;;;;;;;16.05;9.25;;;8.40;99.90;;;;;;4879726;29;20049;-80
2021/12/13 10:57:51;;;;;;;12.73;7.65;;;;;;;;;;4880234;29;20055;-77
2021/12/13 11:00:28;;;;;;;13.73;7.95;;;8.20;99.90;;;;;;4879709;29;20056;-78
2021/12/13 11:03:02;;;;;;;12.25;7.63;;;8.20;99.90;;;;;;4877415;29;20049;-79
2021/12/13 11:05:29;;;;;;;13.10;7.55;;;8.20;99.90;;;;;;4877990;29;20128;-77
2021/12/13 11:07:58;;;;;;;12.00;7.45;;;8.30;99.90;;;;;;4876717;29;20131;-78
2021/12/13 11:10:31;;;;;;;15.50;8.35;;;8.30;99.90;;;;;;4876533;29;20059;-81
2021/12/13 11:13:00;;;;;;;13.35;8.05;;;8.30;99.90;;;;;;4876584;29;20048;-80
2021/12/13 11:15:33;;;;;;;14.48;8.30;;;8.30;99.90;;;;;;4876633;29;20049;-80
2021/12/13 11:18:01;;;;;;;14.05;8.90;;;8.40;99.90;;;;;;4876973;29;20057;-80
2021/12/13 11:20:34;;;;;;;14.23;8.82;;;8.40;99.90;;;;;;4875859;29;20056;-78
2021/12/13 11:23:02;;;;;;;17.05;9.23;;;8.30;99.90;;;;;;4867130;29;20049;-77
2021/12/13 11:25:36;;;;;;;13.57;8.13;;;8.30;99.90;;;;;;4877287;29;20521;-79
2021/12/13 11:28:05;;;;;;;14.32;8.65;;;8.40;99.90;;;;;;4877357;29;20049;-77
2021/12/13 11:30:36;;;;;;;16.60;9.75;;;8.40;99.90;;;;;;4877224;29;20059;-76
2021/12/13 11:34:14;;;;;;;15.02;9.07;;;8.40;99.90;;;;;;4883374;29;20053;-77
2021/12/13 11:37:31;;;;;;;16.30;9.77;;;8.50;99.90;;;;;;4875220;29;20049;-80
2021/12/13 11:40:16;;;;;;;15.27;8.80;;;8.60;99.90;;;;;;4857516;29;20147;-81
2021/12/13 11:43:12;;;;;;;14.40;8.32;;;8.60;99.90;;;;;;4875422;29;20053;-78
2021/12/13 11:46:32;;;;;;;13.50;7.70;;;8.60;99.90;;;;;;4874690;29;20490;-79
2021/12/13 11:49:32;;;;;;;16.40;9.52;;;8.70;99.90;;;;;;4875599;29;20514;-78
2021/12/13 11:52:25;;;;;;;17.33;9.30;;;8.70;99.90;;;;;;4875520;29;20081;-78
2021/12/13 11:55:35;;;;;;;14.30;8.80;;;8.80;99.90;;;;;;4875130;29;20570;-79
2021/12/13 11:58:42;;;;;;;14.60;8.80;;;8.80;99.90;;;;;;4874702;29;20190;-80
2021/12/13 12:01:57;;;;;;;14.50;8.65;;;8.90;99.90;;;;;;4873259;29;20068;-80
2021/12/13 12:05:38;;;;;;;13.80;8.07;;;9.00;99.90;;;;;;4874891;29;20049;-79
2021/12/13 12:08:36;;;;;;;11.77;7.70;;;9.00;99.90;;;;;;4858086;29;20052;-78
2021/12/13 12:11:47;;;;;;;11.25;6.78;;;9.10;99.90;;;;;;4874288;29;20067;-78
2021/12/13 12:14:16;;;;;;;13.25;7.78;;;9.10;99.90;;;;;;4874314;29;20053;-77
2021/12/13 12:16:48;;;;;;;13.13;7.32;;;9.10;99.90;;;;;;4874525;29;20080;-79
2021/12/13 12:19:18;;;;;;;13.35;7.13;;;9.10;99.90;;;;;;4876233;29;20406;-80
2021/12/13 12:21:58;;;;;;;13.82;7.50;;;9.10;99.90;;;;;;4874618;29;20073;-78
2021/12/13 12:24:28;;;;;;;10.10;5.97;;;9.10;99.90;;;;;;4874536;29;20053;-79
2021/12/13 12:26:58;;;;;;;12.10;6.55;;;9.10;99.90;;;;;;4874960;29;20056;-78
2021/12/13 12:29:32;;;;;;;10.35;5.75;;;9.20;99.90;;;;;;4873934;29;20057;-79
2021/12/13 12:32:08;;;;;;;10.73;6.25;;;9.20;99.90;;;;;;4874897;29;20140;-78
2021/12/13 12:34:47;;;;;;;10.18;5.90;;;9.30;99.90;;;;;;4874941;29;20056;-79
2021/12/13 12:38:09;;;;;;;8.88;5.32;;;9.30;99.90;;;;;;4873640;29;20049;-78
2021/12/13 12:40:40;;;;;;;9.13;5.15;;;9.40;99.90;;;;;;4875411;29;20053;-80
2021/12/13 12:43:10;;;;;;;8.30;5.47;;;9.40;99.90;;;;;;4875625;29;20514;-80
2021/12/13 12:45:42;;;;;;;9.13;5.72;;;9.40;99.90;;;;;;4875786;29;20171;-78
2021/12/13 12:48:28;;;;;;;8.88;5.60;;;9.40;99.90;;;;;;4875446;29;20131;-80
2021/12/13 12:51:05;;;;;;;8.18;5.05;;;9.40;99.90;;;;;;4874934;29;20130;-80
2021/12/13 12:53:48;;;;;;;9.85;5.65;;;9.40;99.90;;;;;;4874631;29;20511;-79
2021/12/13 12:56:24;;;;;;;9.13;5.43;;;9.40;99.90;;;;;;4875361;29;20547;-77
2021/12/13 12:59:04;;;;;;;7.80;4.20;;;9.40;99.90;;;;;;4875217;29;20085;-78
2021/12/13 13:01:37;;;;;;;5.57;3.33;;;9.50;99.90;;;;;;4874885;29;20396;-78
2021/12/13 13:04:16;;;;;;;5.22;3.03;;;9.50;99.90;;;;;;4874898;29;20057;-78
2021/12/13 13:06:57;;;;;;;5.88;3.45;;;9.50;99.90;;;;;;4875756;29;20357;-77
2021/12/13 13:09:46;;;;;;;6.28;3.28;;;9.40;99.90;;;;;;4875382;29;20388;-80
2021/12/13 13:12:19;;;;;;;5.88;3.30;;;9.40;99.90;;;;;;4875431;29;20098;-77
2021/12/13 13:14:50;;;;;;;5.63;3.13;;;9.40;99.90;;;;;;4874587;29;20561;-80
2021/12/13 13:17:21;;;;;;;5.90;3.15;;;9.40;99.90;;;;;;4874481;29;20598;-79
2021/12/13 13:19:50;;;;;;;5.68;3.47;;;9.40;99.90;;;;;;4893076;29;20048;-78
2021/12/13 13:22:22;;;;;;;6.20;3.50;;;9.40;99.90;;;;;;4892639;29;20060;-80
2021/12/13 13:24:56;;;;;;;6.53;3.75;;;9.40;99.90;;;;;;4892716;29;20491;-78
2021/12/13 13:27:28;;;;;;;6.70;3.88;;;9.40;99.90;;;;;;4892475;29;20060;-79
2021/12/13 13:29:56;;;;;;;7.60;4.82;;;9.40;99.90;;;;;;4881713;29;20057;-78
2021/12/13 13:32:24;;;;;;;9.45;5.32;;;9.40;99.90;;;;;;4874227;29;20064;-79
2021/12/13 13:34:56;;;;;;;11.00;6.10;;;9.40;99.90;;;;;;4873806;29;20516;-78
2021/12/13 13:37:30;;;;;;;9.55;5.80;;;9.40;99.90;;;;;;4874079;29;20063;-79
2021/12/13 13:40:01;;;;;;;9.88;5.72;;;9.40;99.90;;;;;;4874142;29;20053;-80
2021/12/13 13:42:32;;;;;;;10.40;5.82;;;9.40;99.90;;;;;;4873444;29;20079;-80
2021/12/13 13:45:07;;;;;;;10.38;6.32;;;9.30;99.90;;;;;;4873313;29;20068;-80
2021/12/13 13:47:38;;;;;;;10.85;6.10;;;9.30;99.90;;;;;;4874416;29;20059;-77
2021/12/13 13:50:23;;;;;;;9.55;6.15;;;9.30;99.90;;;;;;4873682;29;20164;-77
2021/12/13 13:52:51;;;;;;;;;;;9.30;99.90;;;;;;4873975;29;20053;-78
2021/12/13 13:55:24;;;;;;;10.10;6.10;;;9.30;99.90;;;;;;4873156;29;20267;-78
2021/12/13 13:57:55;;;;;;;9.93;6.20;;;9.30;99.90;;;;;;4873442;29;20081;-79
2021/12/13 14:00:24;;;;;;;10.15;6.07;;;9.30;99.90;;;;;;4873899;29;20053;-78
2021/12/13 14:02:52;;;;;;;11.38;6.32;;;9.30;99.90;;;;;;4873456;29;20056;-81
2021/12/13 14:05:20;;;;;;;9.80;5.88;;;9.20;99.90;;;;;;4875293;29;20491;-77
2021/12/13 14:07:47;;;;;;;11.93;6.28;;;9.20;99.90;;;;;;4888550;29;20061;-76
2021/12/13 14:10:20;;;;;;;11.38;6.68;;;9.20;99.90;;;;;;4876875;29;20136;-79
2021/12/13 14:12:53;;;;;;;10.30;6.05;;;9.20;99.90;;;;;;4877012;29;20049;-80
2021/12/13 14:15:23;;;;;;;10.70;6.35;;;9.20;99.90;;;;;;4876120;29;20388;-78
2021/12/13 14:17:57;;;;;;;11.82;6.72;;;9.20;99.90;;;;;;4877803;29;20045;-76
2021/12/13 14:20:31;;;;;;;10.25;6.60;;;9.20;99.90;;;;;;4885777;29;20100;-79
2021/12/13 14:23:16;;;;;;;9.98;6.30;;;9.20;99.90;;;;;;4877378;29;20573;-78
2021/12/13 14:25:48;;;;;;;10.88;6.68;;;9.20;99.90;;;;;;4889495;29;20057;-78
2021/12/13 14:28:28;;;;;;;11.00;6.50;;;9.20;99.90;;;;;;4877796;29;20587;-81
2021/12/13 14:30:56;;;;;;;10.85;6.57;;;9.20;99.90;;;;;;4889321;29;20053;-80
2021/12/13 14:33:30;;;;;;;10.40;6.50;;;9.20;99.90;;;;;;4888529;29;20495;-78
2021/12/13 14:36:15;;;;;;;10.18;6.80;;;9.20;99.90;;;;;;4877275;29;20148;-79
2021/12/13 14:38:46;;;;;;;13.38;7.38;;;9.20;99.90;;;;;;4876546;29;20052;-81
2021/12/13 14:41:18;;;;;;;11.82;7.10;;;9.20;99.90;;;;;;4876784;29;20056;-80
2021/12/13 14:43:52;;;;;;;13.00;7.45;;;9.20;99.90;;;;;;4877020;29;20045;-80
2021/12/13 14:46:23;;;;;;;13.82;8.05;;;9.20;99.90;;;;;;4862156;29;20825;-78
2021/12/13 14:49:01;;;;;;;14.48;8.32;;;9.20;99.90;;;;;;4876921;29;20049;-77
2021/12/13 14:51:39;;;;;;;13.80;8.63;;;9.20;99.90;;;;;;4877026;29;20058;-81
2021/12/13 14:54:06;;;;;;;13.50;7.35;;;9.20;99.90;;;;;;4876917;29;20407;-79
2021/12/13 14:56:34;;;;;;;11.48;6.70;;;9.20;99.90;;;;;;4876989;29;20503;-78
2021/12/13 14:59:05;;;;;;;11.30;6.65;;;9.10;99.90;;;;;;4876866;29;20056;-80
2021/12/13 15:01:36;;;;;;;11.10;6.03;;;9.10;99.90;;;;;;4876351;29;20511;-82
2021/12/13 15:04:08;;;;;;;10.00;5.80;;;9.10;99.90;;;;;;4877300;29;20632;-79
2021/12/13 15:06:45;;;;;;;9.90;6.22;;;9.10;99.90;;;;;;4877491;29;20071;-79
2021/12/13 15:09:17;;;;;;;8.60;5.45;;;9.10;99.90;;;;;;4877193;29;20049;-78
2021/12/13 15:11:49;;;;;;;8.45;5.50;;;9.00;99.90;;;;;;4879172;29;20145;-79
2021/12/13 15:14:27;;;;;;;10.50;6.45;;;9.00;99.90;;;;;;4877525;29;20048;-79
2021/12/13 15:16:54;;;;;;;8.93;5.32;;;9.00;99.90;;;;;;4878508;29;20132;-79
2021/12/13 15:19:23;;;;;;;9.57;5.65;;;9.00;99.90;;;;;;4877186;29;20059;-79
2021/12/13 15:21:57;;;;;;;8.32;4.95;;;9.00;99.90;;;;;;4877799;29;20057;-76
2021/12/13 15:24:30;;;;;;;8.80;5.25;;;9.00;99.90;;;;;;4876721;29;20064;-79
2021/12/13 15:27:01;;;;;;;8.98;5.22;;;9.00;99.90;;;;;;4878233;29;20517;-78
2021/12/13 15:29:32;;;;;;;8.63;4.97;;;9.00;99.90;;;;;;4877585;29;20585;-75
2021/12/13 15:32:05;;;;;;;8.15;5.00;;;9.00;99.90;;;;;;4877529;29;20081;-74
2021/12/13 15:34:36;;;;;;;9.77;5.20;;;9.00;99.90;;;;;;4876795;29;20063;-78
2021/12/13 15:37:21;;;;;;;7.43;4.65;;;9.00;99.90;;;;;;4877794;29;20451;-75
2021/12/13 15:39:58;;;;;;;8.48;5.00;;;9.00;99.90;;;;;;4877273;29;20136;-77
2021/12/13 15:42:25;;;;;;;8.88;5.28;;;8.90;99.90;;;;;;4877917;29;20065;-75
2021/12/13 15:44:53;;;;;;;9.20;5.00;;;8.90;99.90;;;;;;4877934;29;20064;-75
2021/12/13 15:47:49;;;;;;;8.38;5.30;;;9.00;99.90;;;;;;4877131;29;20053;-76
2021/12/13 15:50:32;;;;;;;7.78;5.07;;;9.00;99.90;;;;;;4876273;29;20491;-75
2021/12/13 15:53:09;;;;;;;8.63;5.47;;;9.00;99.90;;;;;;4876548;29;20459;-77
2021/12/13 15:55:42;;;;;;;7.93;5.35;;;9.00;99.90;;;;;;4875450;29;20509;-75
2021/12/13 15:58:25;;;;;;;8.18;5.70;;;9.00;99.90;;;;;;4875010;29;20055;-75
2021/12/13 16:01:02;;;;;;;8.63;5.47;;;9.00;99.90;;;;;;4875866;29;20057;-74
2021/12/13 16:03:29;;;;;;;8.50;5.65;;;9.00;99.90;;;;;;4875276;29;20514;-75
2021/12/13 16:05:59;;;;;;;9.95;5.95;;;9.00;99.90;;;;;;4875807;29;20053;-79
2021/12/13 16:08:49;;;;;;;9.15;5.43;;;9.00;99.90;;;;;;4875191;29;20479;-76
2021/12/13 16:11:36;;;;;;;8.30;5.32;;;9.00;99.90;;;;;;4875645;29;20049;-78
2021/12/13 16:14:33;;;;;;;7.95;5.20;;;9.00;99.90;;;;;;4875551;29;20045;-79
2021/12/13 16:17:08;;;;;;;9.38;5.60;;;9.00;99.90;;;;;;4872204;29;20059;-76
2021/12/13 16:19:57;;;;;;;8.85;5.70;;;9.00;99.90;;;;;;4868813;29;20422;-78
2021/12/13 16:22:40;;;;;;;9.27;6.18;;;9.00;99.90;;;;;;4875140;29;20148;-79
2021/12/13 16:25:19;;;;;;;9.65;6.30;;;9.00;99.90;;;;;;4875537;29;20053;-77
2021/12/13 16:27:51;;;;;;;11.50;6.07;;;9.00;99.90;;;;;;4875539;29;20136;-77
2021/12/13 16:30:24;;;;;;;9.75;6.28;;;9.00;99.90;;;;;;4874964;29;20059;-76
2021/12/13 16:32:52;;;;;;;8.57;5.43;;;9.00;99.90;;;;;;4873374;29;20045;-78
2021/12/13 16:35:25;;;;;;;6.57;4.32;;;9.00;99.90;;;;;;4874107;29;20057;-79
2021/12/13 16:37:54;;;;;;;6.85;4.22;;;8.90;99.90;;;;;;4875426;29;20051;-77
2021/12/13 16:40:26;;;;;;;8.23;4.22;;;8.90;99.90;;;;;;4875159;29;20057;-79
2021/12/13 16:42:56;;;;;;;5.18;2.92;;;8.90;99.90;;;;;;4875093;29;20136;-79
2021/12/13 16:45:24;;;;;;;4.78;2.80;;;8.80;99.90;;;;;;4874045;29;20044;-78
2021/12/13 16:47:52;;;;;;;4.90;2.50;;;8.80;99.90;;;;;;4874849;29;20053;-78
2021/12/13 16:50:22;;;;;;;4.10;2.20;;;8.70;99.90;;;;;;4875182;29;20063;-79
2021/12/13 16:52:53;;;;;;;3.97;2.28;;;8.70;99.90;;;;;;4875340;29;20045;-79
2021/12/13 16:55:20;;;;;;;4.43;2.25;;;8.70;99.90;;;;;;4874492;29;20514;-79
2021/12/13 16:57:50;;;;;;;3.75;2.00;;;8.60;99.90;;;;;;4875127;29;20049;-79
2021/12/13 17:00:22;;;;;;;4.32;2.13;;;8.70;99.90;;;;;;4874488;29;20055;-76
2021/12/13 17:02:51;;;;;;;5.22;2.00;;;8.70;99.90;;;;;;4881021;29;20080;-80
2021/12/13 17:05:24;;;;;;;3.70;1.85;;;8.60;99.90;;;;;;4883425;29;20053;-78
2021/12/13 17:07:55;;;;;;;4.10;1.90;;;8.60;99.90;;;;;;4864774;29;20053;-78
2021/12/13 17:10:36;;;;;;;3.40;1.63;;;8.50;99.90;;;;;;4858160;29;20057;-78
2021/12/13 17:13:13;;;;;;;3.97;1.77;;;8.60;99.90;;;;;;4874555;29;20059;-80
2021/12/13 17:15:44;;;;;;;3.60;1.55;;;8.50;99.90;;;;;;4875048;29;20061;-79
2021/12/13 17:18:21;;;;;;;3.70;1.75;;;8.50;99.90;;;;;;4874209;29;20060;-80
2021/12/13 17:21:01;;;;;;;4.82;1.85;;;8.50;99.90;;;;;;4875191;29;20076;-76
2021/12/13 17:23:32;;;;;;;4.43;1.85;;;8.50;99.90;;;;;;4875065;29;20052;-79
2021/12/13 17:26:25;;;;;;;4.45;1.77;;;8.50;99.90;;;;;;4874481;29;20052;-77
2021/12/13 17:29:15;;;;;;;3.30;1.63;;;8.50;99.90;;;;;;4870559;29;20140;-79
2021/12/13 17:31:54;;;;;;;4.70;1.83;;;8.50;99.90;;;;;;4868694;29;20628;-77
2021/12/13 17:34:46;;;;;;;3.53;1.63;;;8.50;99.90;;;;;;4873099;29;20052;-79
2021/12/13 17:37:47;;;;;;;3.10;1.50;;;8.40;99.90;;;;;;4871779;29;20049;-77
2021/12/13 17:40:29;;;;;;;3.15;1.40;;;8.40;99.90;;;;;;4872003;29;20044;-77
2021/12/13 17:43:15;;;;;;;4.15;1.60;;;8.40;99.90;;;;;;4873418;29;20491;-76
2021/12/13 17:45:55;;;;;;;3.42;1.70;;;8.40;99.90;;;;;;4872496;29;20061;-77
2021/12/13 17:48:29;;;;;;;3.65;1.70;;;8.40;99.90;;;;;;4878625;29;20056;-76
2021/12/13 17:51:02;;;;;;;4.15;1.70;;;8.40;99.90;;;;;;4878063;29;20052;-77
2021/12/13 17:53:32;;;;;;;4.25;2.03;;;8.30;99.90;;;;;;4877979;29;20051;-76
2021/12/13 17:56:04;;;;;;;4.55;2.03;;;8.30;99.90;;;;;;4878289;29;20053;-77
2021/12/13 17:58:35;;;;;;;4.97;2.22;;;8.30;99.90;;;;;;4884760;29;20049;-77
2021/12/13 18:01:10;;;;;;;5.40;2.63;;;8.30;99.90;;;;;;4876998;29;20152;-79
2021/12/13 18:03:44;;;;;;;4.68;2.30;;;8.30;99.90;;;;;;4870864;29;20794;-76
2021/12/13 18:06:29;;;;;;;6.05;2.70;;;8.30;99.90;;;;;;4876768;29;20096;-77
2021/12/13 18:09:29;;;;;;;6.55;2.83;;;8.30;99.90;;;;;;4877293;29;20045;-77
2021/12/13 18:12:18;;;;;;;6.90;3.08;;;8.30;99.90;;;;;;4874910;29;20085;-79
2021/12/13 18:14:58;;;;;;;6.47;3.22;;;8.20;99.90;;;;;;4878105;29;20053;-78
2021/12/13 18:17:36;;;;;;;6.97;3.05;;;8.20;99.90;;;;;;4876655;29;20052;-77
2021/12/13 18:20:18;;;;;;;8.15;3.60;;;8.20;99.90;;;;;;4875309;29;20057;-77
2021/12/13 18:22:50;;;;;;;7.60;3.47;;;8.20;99.90;;;;;;4872251;29;20120;-79
2021/12/13 18:26:03;;;;;;;6.30;2.78;;;8.10;99.90;;;;;;4876603;29;20053;-76
2021/12/13 18:28:39;;;;;;;6.07;2.63;;;8.10;99.90;;;;;;4877412;29;20048;-77
2021/12/13 18:31:10;;;;;;;5.53;2.85;;;8.10;99.90;;;;;;4877037;29;20312;-78
2021/12/13 18:33:50;;;;;;;5.80;2.88;;;8.10;99.90;;;;;;4877159;29;20105;-76
2021/12/13 18:36:28;;;;;;;7.30;3.75;;;8.00;99.90;;;;;;4876824;29;20059;-77
2021/12/13 18:38:59;;;;;;;7.72;3.40;;;8.00;99.90;;;;;;4876310;29;20067;-78
2021/12/13 18:41:30;;;;;;;6.45;3.47;;;8.00;99.90;;;;;;4876478;29;20049;-79
2021/12/13 18:44:28;;;;;;;6.95;3.53;;;8.00;99.90;;;;;;4876578;29;20049;-79
2021/12/13 18:46:58;;;;;;;7.38;3.85;;;7.90;99.90;;;;;;4876951;29;20105;-79
2021/12/13 18:49:55;;;;;;;7.68;3.90;;;8.00;99.90;;;;;;4876686;29;20049;-79
2021/12/13 18:52:38;;;;;;;6.47;3.38;;;8.00;99.90;;;;;;4875346;29;20125;-79
2021/12/13 18:55:19;;;;;;;7.95;3.30;;;7.90;99.90;;;;;;4876032;29;20052;-76
2021/12/13 18:57:52;;;;;;;7.13;3.50;;;8.00;99.90;;;;;;4875909;29;20350;-78
2021/12/13 19:00:30;;;;;;;6.82;3.20;;;7.90;99.90;;;;;;4876039;29;20065;-78
2021/12/13 19:03:09;;;;;;;7.25;3.75;;;7.90;99.90;;;;;;4875734;29;20063;-77
2021/12/13 19:05:48;;;;;;;6.78;3.28;;;7.90;99.90;;;;;;4870778;29;20126;-79
2021/12/13 19:08:30;;;;;;;7.15;3.53;;;7.90;99.90;;;;;;4873228;29;20045;-75
2021/12/13 19:11:11;;;;;;;8.70;4.00;;;7.90;99.90;;;;;;4871504;29;20045;-78
2021/12/13 19:13:43;;;;;;;6.68;3.47;;;7.90;99.90;;;;;;4872361;29;20049;-78
2021/12/13 19:16:16;;;;;;;7.07;3.33;;;7.90;99.90;;;;;;4868563;29;20517;-78
2021/12/13 19:18:55;;;;;;;6.22;3.20;;;7.90;99.90;;;;;;4867893;29;20042;-76
2021/12/13 19:21:27;;;;;;;6.90;3.20;;;7.90;99.90;;;;;;4869426;29;20408;-77
2021/12/13 19:24:09;;;;;;;6.97;3.25;;;7.90;99.90;;;;;;4875010;29;20045;-78
2021/12/13 19:26:37;;;;;;;7.32;3.15;;;7.90;99.90;;;;;;4869064;29;20140;-79
2021/12/13 19:29:09;;;;;;;6.15;3.00;;;7.90;99.90;;;;;;4875919;29;20045;-81
2021/12/13 19:31:46;;;;;;;7.63;3.58;;;7.90;99.90;;;;;;4870209;29;20563;-78
2021/12/13 19:34:17;;;;;;;6.45;3.28;;;7.90;99.90;;;;;;4875955;29;20163;-78
2021/12/13 19:36:59;;;;;;;7.70;3.75;;;7.90;99.90;;;;;;4874736;29;20513;-78
2021/12/13 19:39:42;;;;;;;7.70;3.53;;;7.90;99.90;;;;;;4875326;29;20723;-78
2021/12/13 19:42:18;;;;;;;7.60;3.67;;;7.90;99.90;;;;;;4875300;29;20045;-77
2021/12/13 19:44:50;;;;;;;6.10;3.25;;;7.90;99.90;;;;;;4875420;29;20049;-77
2021/12/13 19:47:27;;;;;;;7.55;4.03;;;7.90;99.90;;;;;;4875240;29;20057;-79